createdAt,value
2017-08-30T00:00:11.619Z,90.50
2017-08-30T00:02:39.259Z,90.60
2017-08-30T00:05:06.890Z,90.60
2017-08-30T00:07:34.528Z,90.60
2017-08-30T00:10:02.151Z,90.40
2017-08-30T00:12:29.772Z,90.00
2017-08-30T00:14:57.419Z,91.30
2017-08-30T00:17:25.058Z,92.30
2017-08-30T00:19:52.682Z,92.20
2017-08-30T00:22:20.353Z,91.40
2017-08-30T00:24:59.934Z,91.90
2017-08-30T00:27:27.561Z,91.60
2017-08-30T00:29:55.158Z,91.30
2017-08-30T00:32:22.803Z,91.70
2017-08-30T00:34:50.894Z,92.10
2017-08-30T00:37:18.525Z,92.30
2017-08-30T00:39:46.188Z,92.60
2017-08-30T00:42:13.864Z,92.50
2017-08-30T00:44:41.500Z,92.60
2017-08-30T00:47:09.177Z,92.40
2017-08-30T00:49:36.837Z,92.40
2017-08-30T00:52:04.548Z,92.70
2017-08-30T00:54:32.214Z,92.80
2017-08-30T00:56:59.864Z,93.10
2017-08-30T00:59:27.519Z,93.30
2017-08-30T01:01:55.145Z,93.70
2017-08-30T01:04:22.805Z,93.60
2017-08-30T01:06:50.513Z,93.50
2017-08-30T01:09:18.163Z,93.20
2017-08-30T01:11:45.816Z,93.40
2017-08-30T01:14:13.526Z,93.20
2017-08-30T01:16:41.191Z,93.00
2017-08-30T01:19:08.983Z,92.80
2017-08-30T01:21:36.755Z,92.80
2017-08-30T01:24:04.406Z,92.90
2017-08-30T01:26:32.028Z,93.00
2017-08-30T01:28:59.663Z,92.90
2017-08-30T01:31:27.312Z,93.10
2017-08-30T01:33:54.946Z,93.50
2017-08-30T01:36:22.588Z,93.30
2017-08-30T01:38:50.231Z,93.70
2017-08-30T01:41:17.916Z,93.60
2017-08-30T01:43:45.640Z,94.10
2017-08-30T01:46:13.284Z,94.20
2017-08-30T01:48:40.949Z,94.40
2017-08-30T01:51:08.698Z,94.40
2017-08-30T01:53:36.348Z,94.20
2017-08-30T01:56:03.990Z,94.00
2017-08-30T01:58:31.625Z,93.80
2017-08-30T02:00:59.246Z,93.80
2017-08-30T02:03:26.856Z,93.90
2017-08-30T02:05:54.513Z,93.90
2017-08-30T02:08:22.509Z,93.80
2017-08-30T02:10:50.679Z,94.10
2017-08-30T02:13:18.722Z,94.50
2017-08-30T02:15:46.811Z,94.20
2017-08-30T02:18:14.446Z,94.20
2017-08-30T02:20:42.082Z,93.90
2017-08-30T02:23:09.740Z,94.20
2017-08-30T02:25:37.366Z,93.90
2017-08-30T02:28:05.686Z,94.00
2017-08-30T02:30:33.339Z,94.40
2017-08-30T02:33:00.988Z,94.60
2017-08-30T02:35:28.661Z,94.50
2017-08-30T02:37:56.335Z,94.90
2017-08-30T02:40:23.964Z,94.50
2017-08-30T02:42:51.616Z,94.30
2017-08-30T02:45:19.301Z,94.40
2017-08-30T02:47:46.955Z,94.30
2017-08-30T02:50:14.668Z,94.40
2017-08-30T02:52:42.331Z,94.60
2017-08-30T02:55:09.961Z,94.60
2017-08-30T02:57:37.732Z,94.80
2017-08-30T03:00:05.695Z,94.90
2017-08-30T03:22:27.458Z,95.40
2017-08-30T03:24:55.077Z,95.10
2017-08-30T03:27:22.688Z,95.00
2017-08-30T03:29:50.342Z,95.30
2017-08-30T03:32:18.158Z,95.40
2017-08-30T03:34:45.762Z,95.10
2017-08-30T03:37:13.414Z,95.20
2017-08-30T03:39:41.037Z,95.40
2017-08-30T03:42:08.652Z,95.60
2017-08-30T03:44:36.278Z,95.40
2017-08-30T03:47:03.890Z,95.30
2017-08-30T03:49:31.572Z,95.30
2017-08-30T03:51:59.276Z,95.40
2017-08-30T03:54:26.876Z,95.90
2017-08-30T03:56:54.503Z,95.50
2017-08-30T03:59:22.144Z,95.50
2017-08-30T04:01:49.749Z,95.60
2017-08-30T04:04:17.369Z,95.80
2017-08-30T04:06:45.057Z,96.00
2017-08-30T04:09:12.642Z,96.10
2017-08-30T04:11:40.238Z,95.90
2017-08-30T04:14:07.867Z,96.00
2017-08-30T04:16:35.460Z,96.10
2017-08-30T04:19:03.075Z,96.20
2017-08-30T04:21:30.746Z,96.00
2017-08-30T04:23:58.351Z,96.00
2017-08-30T04:26:25.971Z,95.90
2017-08-30T04:28:53.618Z,95.90
2017-08-30T04:31:21.221Z,95.80
2017-08-30T04:33:48.831Z,95.80
2017-08-30T04:36:16.510Z,96.00
2017-08-30T04:38:44.133Z,96.10
2017-08-30T04:41:11.773Z,96.50
2017-08-30T04:43:39.397Z,96.70
2017-08-30T04:46:06.999Z,96.30
2017-08-30T04:48:34.656Z,96.40
2017-08-30T04:51:02.252Z,96.20
2017-08-30T04:53:29.851Z,96.60
2017-08-30T04:55:57.479Z,96.40
2017-08-30T04:58:25.094Z,96.20
2017-08-30T05:00:52.756Z,96.50
2017-08-30T05:03:20.502Z,96.40
2017-08-30T05:05:48.148Z,96.10
2017-08-30T05:08:15.853Z,95.90
2017-08-30T05:10:43.598Z,96.20
2017-08-30T05:13:11.275Z,96.10
2017-08-30T05:15:39.002Z,96.10
2017-08-30T05:18:06.699Z,95.80
2017-08-30T05:20:34.284Z,95.80
2017-08-30T05:23:01.934Z,95.80
2017-08-30T05:25:29.540Z,95.50
2017-08-30T05:27:57.141Z,95.40
2017-08-30T05:30:24.726Z,95.20
2017-08-30T05:32:52.343Z,94.80
2017-08-30T05:35:19.956Z,94.80
2017-08-30T05:37:47.571Z,94.50
2017-08-30T05:40:15.225Z,94.50
2017-08-30T05:42:42.819Z,94.90
2017-08-30T05:45:10.526Z,95.10
2017-08-30T05:47:38.144Z,94.00
2017-08-30T05:50:05.765Z,94.90
2017-08-30T05:52:33.383Z,94.30
2017-08-30T05:55:00.991Z,94.30
2017-08-30T05:57:28.749Z,93.90
2017-08-30T05:59:56.383Z,93.10
2017-08-30T06:02:23.979Z,93.60
2017-08-30T06:04:51.599Z,92.90
2017-08-30T06:07:19.260Z,92.80
2017-08-30T06:09:47.309Z,92.90
2017-08-30T06:12:14.921Z,92.50
2017-08-30T06:14:42.556Z,92.50
2017-08-30T06:17:10.163Z,92.00
2017-08-30T06:19:38.530Z,91.60
2017-08-30T06:22:06.813Z,91.70
2017-08-30T06:24:34.423Z,92.40
2017-08-30T06:27:01.994Z,91.60
2017-08-30T06:29:29.602Z,92.20
2017-08-30T06:31:57.187Z,91.80
2017-08-30T06:34:24.829Z,92.30
2017-08-30T06:36:52.421Z,92.20
2017-08-30T06:39:19.994Z,92.30
2017-08-30T06:41:47.626Z,91.70
2017-08-30T06:44:15.239Z,91.70
2017-08-30T06:46:42.837Z,92.10
2017-08-30T06:49:10.526Z,92.00
2017-08-30T06:51:38.374Z,92.10
2017-08-30T06:54:06.846Z,92.00
2017-08-30T06:56:34.531Z,91.90
2017-08-30T06:59:02.163Z,90.90
2017-08-30T07:01:30.048Z,90.90
2017-08-30T07:03:57.708Z,89.40
2017-08-30T07:06:25.344Z,90.30
2017-08-30T07:08:52.979Z,90.00
2017-08-30T07:11:20.645Z,90.20
2017-08-30T07:13:48.254Z,90.80
2017-08-30T07:16:15.938Z,90.20
2017-08-30T07:18:43.592Z,88.40
2017-08-30T07:21:11.191Z,87.60
2017-08-30T07:23:38.764Z,89.10
2017-08-30T07:26:06.378Z,90.40
2017-08-30T07:28:33.992Z,90.00
2017-08-30T07:31:01.625Z,90.00
2017-08-30T07:33:29.249Z,88.70
2017-08-30T07:35:56.880Z,89.30
2017-08-30T07:38:24.512Z,88.70
2017-08-30T07:40:52.147Z,88.30
2017-08-30T07:43:19.846Z,87.80
2017-08-30T07:45:47.509Z,87.40
2017-08-30T07:48:15.109Z,87.70
2017-08-30T07:50:42.752Z,85.20
2017-08-30T07:53:10.378Z,84.90
2017-08-30T07:55:38.057Z,84.00
2017-08-30T07:58:05.976Z,84.70
2017-08-30T08:00:33.616Z,85.60
2017-08-30T08:03:01.234Z,84.50
2017-08-30T08:05:28.865Z,85.60
2017-08-30T08:07:56.518Z,85.20
2017-08-30T08:10:24.148Z,82.40
2017-08-30T08:12:51.755Z,82.00
2017-08-30T08:15:19.414Z,81.30
2017-08-30T08:17:47.012Z,84.10
2017-08-30T08:20:14.780Z,77.90
2017-08-30T08:22:44.408Z,77.40
2017-08-30T08:25:12.069Z,79.00
2017-08-30T08:27:39.707Z,78.10
2017-08-30T08:30:07.378Z,76.40
2017-08-30T08:32:35.006Z,77.50
2017-08-30T08:35:02.658Z,79.60
2017-08-30T08:37:30.276Z,76.70
2017-08-30T08:39:57.880Z,75.00
2017-08-30T08:42:25.515Z,74.60
2017-08-30T08:44:53.142Z,77.20
2017-08-30T08:47:21.564Z,72.90
2017-08-30T08:49:49.247Z,74.50
2017-08-30T08:52:16.852Z,72.80
2017-08-30T08:54:44.489Z,74.00
2017-08-30T08:57:12.186Z,73.90
2017-08-30T08:59:39.787Z,74.70
2017-08-30T09:02:07.396Z,73.70
2017-08-30T09:04:35.000Z,73.50
2017-08-30T09:07:02.596Z,76.80
2017-08-30T09:09:30.222Z,75.90
2017-08-30T09:11:57.826Z,72.90
2017-08-30T09:14:25.482Z,72.90
2017-08-30T09:16:53.088Z,72.90
2017-08-30T09:19:20.752Z,75.20
2017-08-30T09:21:48.360Z,73.80
2017-08-30T09:24:15.978Z,71.80
2017-08-30T09:26:43.668Z,73.20
2017-08-30T09:29:11.337Z,75.20
2017-08-30T09:31:38.948Z,72.70
2017-08-30T09:34:06.579Z,70.50
2017-08-30T09:36:34.262Z,72.70
2017-08-30T09:39:01.889Z,70.30
2017-08-30T09:41:29.507Z,69.60
2017-08-30T09:43:57.138Z,69.90
2017-08-30T09:46:25.166Z,71.60
2017-08-30T09:48:52.896Z,70.40
2017-08-30T09:51:20.620Z,67.90
2017-08-30T09:53:48.338Z,68.80
2017-08-30T09:56:15.992Z,71.70
2017-08-30T09:58:43.626Z,70.80
2017-08-30T10:01:11.304Z,69.70
2017-08-30T10:03:38.955Z,71.10
2017-08-30T10:06:06.855Z,66.90
2017-08-30T10:08:34.522Z,68.30
2017-08-30T10:11:02.498Z,67.60
2017-08-30T10:13:30.321Z,68.80
2017-08-30T10:15:57.970Z,68.10
2017-08-30T10:20:59.541Z,65.00
2017-08-30T10:23:27.193Z,64.40
2017-08-30T10:25:54.866Z,65.10
2017-08-30T10:28:22.471Z,64.90
2017-08-30T10:30:50.107Z,66.10
2017-08-30T10:33:17.787Z,65.70
2017-08-30T10:35:45.462Z,66.60
2017-08-30T10:38:13.079Z,64.30
2017-08-30T10:40:41.018Z,64.70
2017-08-30T10:43:08.713Z,66.10
2017-08-30T10:45:36.341Z,63.20
2017-08-30T10:48:04.007Z,62.30
2017-08-30T10:50:31.722Z,65.80
2017-08-30T10:52:59.376Z,61.70
2017-08-30T10:55:27.096Z,62.50
2017-08-30T10:57:55.443Z,61.30
2017-08-30T11:00:23.574Z,65.30
2017-08-30T11:02:51.303Z,60.40
2017-08-30T11:05:18.960Z,62.30
2017-08-30T11:07:46.629Z,62.00
2017-08-30T11:10:14.605Z,62.80
2017-08-30T11:15:45.393Z,61.20
2017-08-30T11:18:13.034Z,63.80
2017-08-30T11:20:40.690Z,61.40
2017-08-30T11:23:08.460Z,60.00
2017-08-30T11:25:36.631Z,58.80
2017-08-30T11:28:04.337Z,59.10
2017-08-30T11:30:31.981Z,58.70
2017-08-30T11:32:59.639Z,59.30
2017-08-30T11:35:27.367Z,57.40
2017-08-30T11:37:55.008Z,58.90
2017-08-30T11:40:24.151Z,57.90
2017-08-30T11:42:51.801Z,58.00
2017-08-30T11:45:19.432Z,56.70
2017-08-30T11:47:47.079Z,58.60
2017-08-30T11:50:15.106Z,58.00
2017-08-30T11:52:42.958Z,55.60
2017-08-30T11:55:10.652Z,56.70
2017-08-30T11:57:38.474Z,54.30
2017-08-30T12:00:07.826Z,52.20
2017-08-30T12:02:35.439Z,52.40
2017-08-30T12:05:03.063Z,52.20
2017-08-30T12:07:30.667Z,53.30
2017-08-30T12:10:00.404Z,51.50
2017-08-30T12:12:28.134Z,50.80
2017-08-30T12:14:55.801Z,49.80
2017-08-30T12:17:23.483Z,52.50
2017-08-30T12:19:51.150Z,52.70
2017-08-30T12:22:18.952Z,49.10
2017-08-30T12:24:47.750Z,49.00
2017-08-30T12:27:15.457Z,53.20
2017-08-30T12:29:43.084Z,49.10
2017-08-30T12:32:10.696Z,48.50
2017-08-30T12:34:40.223Z,49.50
2017-08-30T12:37:13.414Z,50.50
2017-08-30T12:39:41.100Z,51.70
2017-08-30T12:42:09.004Z,53.20
2017-08-30T12:44:36.631Z,50.40
2017-08-30T12:47:04.305Z,50.00
2017-08-30T12:49:32.013Z,52.20
2017-08-30T12:51:59.669Z,48.00
2017-08-30T12:54:27.752Z,48.60
2017-08-30T12:56:55.367Z,48.60
2017-08-30T12:59:23.011Z,51.20
2017-08-30T13:01:50.688Z,50.40
2017-08-30T13:04:18.295Z,49.70
2017-08-30T13:06:45.929Z,47.20
2017-08-30T13:09:13.629Z,49.90
2017-08-30T13:11:41.230Z,48.70
2017-08-30T13:14:08.898Z,49.10
2017-08-30T13:16:36.534Z,52.40
2017-08-30T13:19:04.185Z,49.50
2017-08-30T13:21:31.806Z,49.70
2017-08-30T13:23:59.472Z,47.70
2017-08-30T13:26:27.118Z,49.80
2017-08-30T13:28:54.853Z,47.70
2017-08-30T13:31:22.590Z,45.60
2017-08-30T13:33:50.199Z,46.50
2017-08-30T13:36:17.797Z,47.50
2017-08-30T13:38:45.412Z,46.30
2017-08-30T13:41:13.035Z,46.20
2017-08-30T13:43:40.673Z,46.30
2017-08-30T13:46:08.286Z,50.90
2017-08-30T13:48:35.902Z,47.50
2017-08-30T13:51:03.605Z,49.70
2017-08-30T13:53:32.235Z,47.20
2017-08-30T13:55:59.886Z,46.80
2017-08-30T13:58:27.542Z,46.70
2017-08-30T14:00:55.164Z,43.40
2017-08-30T14:03:24.588Z,45.70
2017-08-30T14:05:52.344Z,45.40
2017-08-30T14:08:19.978Z,44.40
2017-08-30T14:10:47.615Z,45.00
2017-08-30T14:13:15.334Z,46.90
2017-08-30T14:15:42.948Z,45.80
2017-08-30T14:18:10.589Z,44.00
2017-08-30T14:20:38.209Z,44.60
2017-08-30T14:23:07.084Z,43.80
2017-08-30T14:25:34.753Z,44.30
2017-08-30T14:28:03.492Z,47.60
2017-08-30T14:30:31.110Z,45.60
2017-08-30T14:32:58.801Z,45.20
2017-08-30T14:35:26.664Z,44.90
2017-08-30T14:37:54.299Z,44.80
2017-08-30T14:40:21.998Z,45.50
2017-08-30T14:42:49.616Z,44.90
2017-08-30T14:45:17.236Z,46.30
2017-08-30T14:47:45.854Z,46.10
2017-08-30T14:52:49.159Z,47.10
2017-08-30T14:55:16.862Z,47.80
2017-08-30T14:57:45.173Z,47.90
2017-08-30T15:00:12.832Z,48.10
2017-08-30T15:02:40.482Z,47.30
2017-08-30T15:05:08.104Z,46.30
2017-08-30T15:07:35.735Z,45.20
2017-08-30T15:10:03.414Z,46.00
2017-08-30T15:12:31.020Z,47.30
2017-08-30T15:14:58.715Z,46.00
2017-08-30T15:17:26.902Z,45.30
2017-08-30T15:19:54.576Z,47.50
2017-08-30T15:22:22.688Z,47.70
2017-08-30T15:24:50.397Z,46.30
2017-08-30T15:27:18.033Z,46.40
2017-08-30T15:29:45.667Z,48.00
2017-08-30T15:32:13.326Z,46.00
2017-08-30T15:34:40.955Z,46.40
2017-08-30T15:37:08.589Z,46.10
2017-08-30T15:39:36.252Z,44.90
2017-08-30T15:42:03.880Z,46.10
2017-08-30T15:47:05.409Z,44.40
2017-08-30T15:49:33.041Z,47.30
2017-08-30T15:52:00.667Z,45.60
2017-08-30T15:54:28.354Z,46.50
2017-08-30T15:56:55.954Z,46.90
2017-08-30T15:59:23.641Z,45.20
2017-08-30T16:01:51.263Z,47.30
2017-08-30T16:04:19.058Z,47.50
2017-08-30T16:06:46.692Z,47.80
2017-08-30T16:09:14.364Z,46.50
2017-08-30T16:11:42.088Z,46.40
2017-08-30T16:14:09.920Z,44.70
2017-08-30T16:16:37.581Z,46.60
2017-08-30T16:19:05.359Z,47.50
2017-08-30T16:21:33.639Z,46.30
2017-08-30T16:24:01.304Z,46.00
2017-08-30T16:26:28.956Z,48.70
2017-08-30T16:28:56.604Z,55.90
2017-08-30T16:31:24.272Z,58.90
2017-08-30T16:33:51.922Z,60.30
2017-08-30T16:36:19.589Z,57.90
2017-08-30T16:38:47.218Z,60.00
2017-08-30T16:41:15.865Z,63.30
2017-08-30T16:43:43.551Z,65.00
2017-08-30T16:46:11.206Z,66.70
2017-08-30T16:48:38.898Z,66.30
2017-08-30T16:51:06.730Z,67.50
2017-08-30T16:53:34.367Z,67.30
2017-08-30T16:56:02.065Z,66.90
2017-08-30T16:58:29.751Z,68.00
2017-08-30T17:00:57.455Z,70.40
2017-08-30T17:03:25.165Z,68.10
2017-08-30T17:05:52.877Z,69.70
2017-08-30T17:08:21.090Z,69.50
2017-08-30T17:10:48.823Z,70.90
2017-08-30T17:13:16.533Z,71.60
2017-08-30T17:15:44.192Z,71.30
2017-08-30T17:18:11.884Z,72.20
2017-08-30T17:20:39.546Z,73.90
2017-08-30T17:23:07.474Z,74.60
2017-08-30T17:25:35.269Z,74.40
2017-08-30T17:28:02.983Z,73.80
2017-08-30T17:30:33.650Z,74.40
2017-08-30T17:33:01.320Z,74.80
2017-08-30T17:35:29.385Z,74.40
2017-08-30T17:37:57.023Z,74.30
2017-08-30T17:40:24.658Z,74.70
2017-08-30T17:42:52.387Z,74.60
2017-08-30T17:45:20.232Z,74.50
2017-08-30T17:47:47.887Z,74.60
2017-08-30T17:50:15.789Z,75.80
2017-08-30T17:52:43.440Z,76.60
2017-08-30T17:55:11.319Z,76.00
2017-08-30T17:57:42.403Z,76.20
2017-08-30T18:00:10.948Z,75.60
2017-08-30T18:02:39.092Z,76.30
2017-08-30T18:05:07.070Z,77.30
2017-08-30T18:07:36.138Z,77.70
2017-08-30T18:10:03.843Z,77.50
2017-08-30T18:12:33.159Z,77.30
2017-08-30T18:15:00.858Z,77.40
2017-08-30T18:17:28.519Z,78.70
2017-08-30T18:19:56.203Z,79.90
2017-08-30T18:22:23.860Z,79.60
2017-08-30T18:24:54.561Z,79.70
2017-08-30T18:27:22.654Z,78.70
2017-08-30T18:29:50.277Z,78.60
2017-08-30T18:32:18.101Z,78.90
2017-08-30T18:34:49.005Z,79.60
2017-08-30T18:37:16.663Z,79.20
2017-08-30T18:39:44.288Z,81.70
2017-08-30T18:42:11.940Z,80.90
2017-08-30T18:44:41.837Z,81.00
2017-08-30T18:47:10.349Z,81.40
2017-08-30T18:49:38.070Z,81.40
2017-08-30T18:52:05.697Z,80.90
2017-08-30T18:54:35.715Z,81.00
2017-08-30T18:57:03.782Z,80.90
2017-08-30T18:59:31.406Z,81.40
2017-08-30T19:01:59.138Z,82.30
2017-08-30T19:04:26.797Z,82.00
2017-08-30T19:06:54.452Z,82.10
2017-08-30T19:09:22.238Z,82.00
2017-08-30T19:11:49.964Z,82.40
2017-08-30T19:14:17.633Z,82.10
2017-08-30T19:16:45.280Z,81.90
2017-08-30T19:19:13.285Z,83.20
2017-08-30T19:21:40.956Z,83.20
2017-08-30T19:24:08.609Z,83.20
2017-08-30T19:26:36.857Z,83.60
2017-08-30T19:29:04.540Z,83.90
2017-08-30T19:31:32.963Z,84.30
2017-08-30T19:34:00.897Z,84.40
2017-08-30T19:36:29.474Z,84.10
2017-08-30T19:38:57.105Z,84.90
2017-08-30T19:41:24.801Z,83.80
2017-08-30T19:43:54.797Z,83.60
2017-08-30T19:46:23.600Z,83.80
2017-08-30T19:48:51.286Z,85.50
2017-08-30T19:51:18.976Z,84.40
2017-08-30T19:53:46.665Z,85.10
2017-08-30T19:56:14.333Z,85.20
2017-08-30T19:58:41.982Z,86.40
2017-08-30T20:01:09.593Z,86.10
2017-08-30T20:03:37.249Z,85.70
2017-08-30T20:06:04.884Z,85.90
2017-08-30T20:08:32.521Z,87.40
2017-08-30T20:11:00.146Z,86.60
2017-08-30T20:13:27.790Z,86.20
2017-08-30T20:15:55.425Z,86.30
2017-08-30T20:18:23.691Z,86.20
2017-08-30T20:20:51.571Z,88.40
2017-08-30T20:23:19.261Z,88.60
2017-08-30T20:25:47.677Z,88.10
2017-08-30T20:28:15.300Z,88.00
2017-08-30T20:30:43.061Z,88.10
2017-08-30T20:33:10.942Z,87.20
2017-08-30T20:35:38.567Z,87.10
2017-08-30T20:38:06.204Z,86.80
2017-08-30T20:40:33.870Z,86.60
2017-08-30T20:43:01.491Z,86.30
2017-08-30T20:45:29.140Z,86.40
2017-08-30T20:47:56.795Z,86.80
2017-08-30T20:50:24.422Z,87.00
2017-08-30T20:52:54.072Z,87.20
2017-08-30T20:55:22.074Z,87.20
2017-08-30T20:57:49.711Z,87.40
2017-08-30T21:00:17.333Z,87.40
2017-08-30T21:02:45.003Z,87.40
2017-08-30T21:05:13.025Z,87.20
2017-08-30T21:07:41.045Z,87.80
2017-08-30T21:10:08.709Z,88.30
2017-08-30T21:12:36.357Z,87.90
2017-08-30T21:15:05.165Z,88.00
2017-08-30T21:17:32.813Z,88.00
2017-08-30T21:20:00.407Z,88.40
2017-08-30T21:22:28.048Z,89.10
2017-08-30T21:24:55.705Z,90.00
2017-08-30T21:27:23.410Z,90.10
2017-08-30T21:29:51.042Z,90.30
2017-08-30T21:32:19.221Z,90.50
2017-08-30T21:34:46.837Z,90.80
2017-08-30T21:37:15.457Z,91.20
2017-08-30T21:39:43.114Z,91.00
2017-08-30T21:42:10.720Z,91.20
2017-08-30T21:44:38.338Z,91.20
2017-08-30T21:47:06.080Z,91.00
2017-08-30T21:49:33.772Z,90.90
2017-08-30T21:52:01.418Z,91.30
2017-08-30T21:54:29.152Z,91.20
2017-08-30T21:56:56.790Z,91.40
2017-08-30T21:59:24.408Z,91.70
2017-08-30T22:01:52.267Z,91.60
2017-08-30T22:04:19.940Z,91.70
2017-08-30T22:06:47.584Z,91.40
2017-08-30T22:09:15.208Z,91.70
2017-08-30T22:11:46.466Z,91.60
2017-08-30T22:14:14.226Z,91.80
2017-08-30T22:16:41.859Z,91.70
2017-08-30T22:19:09.539Z,91.60
2017-08-30T22:21:37.193Z,91.80
2017-08-30T22:24:04.812Z,92.30
2017-08-30T22:26:32.436Z,92.50
2017-08-30T22:29:00.731Z,92.40
2017-08-30T22:31:28.352Z,92.60
2017-08-30T22:33:55.979Z,92.30
2017-08-30T22:36:23.613Z,92.00
2017-08-30T22:41:28.873Z,92.60
2017-08-30T22:43:56.520Z,93.10
2017-08-30T22:46:24.149Z,93.10
2017-08-30T22:48:51.768Z,93.00
2017-08-30T22:51:19.395Z,93.10
2017-08-30T22:53:46.993Z,93.20
2017-08-30T22:56:14.627Z,93.90
2017-08-30T22:58:42.261Z,94.00
2017-08-30T23:01:09.888Z,93.90
2017-08-30T23:03:37.492Z,93.50
2017-08-30T23:06:05.109Z,93.10
2017-08-30T23:08:32.713Z,93.20
2017-08-30T23:11:00.312Z,93.20
2017-08-30T23:13:27.947Z,93.50
2017-08-30T23:15:55.548Z,93.30
2017-08-30T23:18:23.193Z,93.50
2017-08-30T23:20:50.840Z,93.50
2017-08-30T23:23:18.447Z,93.70
2017-08-30T23:25:46.048Z,93.70
2017-08-30T23:28:13.779Z,93.70
2017-08-30T23:30:41.478Z,94.10
2017-08-30T23:33:09.114Z,94.50
2017-08-30T23:35:37.519Z,94.20
2017-08-30T23:38:05.203Z,94.20
2017-08-30T23:40:32.840Z,94.40
2017-08-30T23:43:00.497Z,94.50
2017-08-30T23:45:29.030Z,94.40
2017-08-30T23:47:56.669Z,94.10
2017-08-30T23:50:24.314Z,94.00
2017-08-30T23:52:51.924Z,94.40
2017-08-30T23:55:19.581Z,94.40
2017-08-30T23:57:47.181Z,94.10
